sensor_id;sensor_type;location;lat;lon;timestamp;P1;durP1;ratioP1;P2;durP2;ratioP2
42884;SDS011;28534;48.100;11.584;2023-02-23T00:01:02;7.05;;;5.40;;
42884;SDS011;28534;48.100;11.584;2023-02-23T00:06:11;7.55;;;5.53;;
42884;SDS011;28534;48.100;11.584;2023-02-23T00:11:13;8.18;;;5.50;;
42884;SDS011;28534;48.100;11.584;2023-02-23T00:16:18;6.40;;;4.72;;
42884;SDS011;28534;48.100;11.584;2023-02-23T00:21:22;6.38;;;4.75;;
42884;SDS011;28534;48.100;11.584;2023-02-23T00:26:26;5.72;;;4.57;;
42884;SDS011;28534;48.100;11.584;2023-02-23T00:31:31;5.70;;;4.38;;
42884;SDS011;28534;48.100;11.584;2023-02-23T00:36:34;4.20;;;3.80;;
42884;SDS011;28534;48.100;11.584;2023-02-23T00:41:36;5.10;;;3.92;;
42884;SDS011;28534;48.100;11.584;2023-02-23T00:46:39;4.50;;;3.78;;
42884;SDS011;28534;48.100;11.584;2023-02-23T00:51:42;5.68;;;3.78;;
42884;SDS011;28534;48.100;11.584;2023-02-23T00:56:44;3.83;;;3.47;;
42884;SDS011;28534;48.100;11.584;2023-02-23T01:01:48;3.90;;;3.50;;
42884;SDS011;28534;48.100;11.584;2023-02-23T01:06:51;4.82;;;3.85;;
42884;SDS011;28534;48.100;11.584;2023-02-23T01:11:53;4.78;;;3.70;;
42884;SDS011;28534;48.100;11.584;2023-02-23T01:16:57;4.65;;;3.47;;
42884;SDS011;28534;48.100;11.584;2023-02-23T01:22:00;5.07;;;3.55;;
42884;SDS011;28534;48.100;11.584;2023-02-23T01:27:02;4.72;;;4.07;;
42884;SDS011;28534;48.100;11.584;2023-02-23T01:32:05;6.05;;;3.47;;
42884;SDS011;28534;48.100;11.584;2023-02-23T01:37:07;6.05;;;3.45;;
42884;SDS011;28534;48.100;11.584;2023-02-23T01:42:09;4.07;;;3.08;;
42884;SDS011;28534;48.100;11.584;2023-02-23T01:47:15;4.70;;;3.47;;
42884;SDS011;28534;48.100;11.584;2023-02-23T01:52:19;3.70;;;3.10;;
42884;SDS011;28534;48.100;11.584;2023-02-23T01:57:21;3.63;;;3.17;;
42884;SDS011;28534;48.100;11.584;2023-02-23T02:02:27;3.42;;;3.05;;
42884;SDS011;28534;48.100;11.584;2023-02-23T02:07:32;3.75;;;3.30;;
42884;SDS011;28534;48.100;11.584;2023-02-23T02:12:35;4.55;;;3.40;;
42884;SDS011;28534;48.100;11.584;2023-02-23T02:17:39;4.07;;;3.42;;
42884;SDS011;28534;48.100;11.584;2023-02-23T02:22:52;3.80;;;3.40;;
42884;SDS011;28534;48.100;11.584;2023-02-23T02:28:28;3.50;;;3.20;;
42884;SDS011;28534;48.100;11.584;2023-02-23T02:39:29;4.35;;;3.17;;
42884;SDS011;28534;48.100;11.584;2023-02-23T02:44:40;3.30;;;3.00;;
42884;SDS011;28534;48.100;11.584;2023-02-23T02:49:49;3.88;;;3.38;;
42884;SDS011;28534;48.100;11.584;2023-02-23T02:55:00;3.47;;;3.10;;
42884;SDS011;28534;48.100;11.584;2023-02-23T03:00:12;3.13;;;2.85;;
42884;SDS011;28534;48.100;11.584;2023-02-23T03:05:38;3.38;;;3.08;;
42884;SDS011;28534;48.100;11.584;2023-02-23T03:11:01;3.70;;;3.30;;
42884;SDS011;28534;48.100;11.584;2023-02-23T03:16:24;4.93;;;3.03;;
42884;SDS011;28534;48.100;11.584;2023-02-23T03:21:55;3.53;;;2.95;;
42884;SDS011;28534;48.100;11.584;2023-02-23T03:27:24;3.35;;;3.00;;
42884;SDS011;28534;48.100;11.584;2023-02-23T03:32:49;3.42;;;3.13;;
42884;SDS011;28534;48.100;11.584;2023-02-23T03:38:14;3.50;;;3.20;;
42884;SDS011;28534;48.100;11.584;2023-02-23T03:43:40;3.25;;;2.85;;
42884;SDS011;28534;48.100;11.584;2023-02-23T03:49:06;3.10;;;2.80;;
42884;SDS011;28534;48.100;11.584;2023-02-23T03:54:29;3.10;;;2.80;;
42884;SDS011;28534;48.100;11.584;2023-02-23T03:59:54;4.03;;;3.20;;
42884;SDS011;28534;48.100;11.584;2023-02-23T04:05:17;2.95;;;2.72;;
42884;SDS011;28534;48.100;11.584;2023-02-23T04:10:39;3.20;;;2.90;;
42884;SDS011;28534;48.100;11.584;2023-02-23T04:16:05;3.13;;;2.83;;
42884;SDS011;28534;48.100;11.584;2023-02-23T04:21:07;3.08;;;2.78;;
42884;SDS011;28534;48.100;11.584;2023-02-23T04:26:10;2.88;;;2.50;;
42884;SDS011;28534;48.100;11.584;2023-02-23T04:31:13;2.70;;;2.50;;
42884;SDS011;28534;48.100;11.584;2023-02-23T04:36:17;3.15;;;2.85;;
42884;SDS011;28534;48.100;11.584;2023-02-23T04:41:19;2.70;;;2.50;;
42884;SDS011;28534;48.100;11.584;2023-02-23T04:46:22;2.80;;;2.50;;
42884;SDS011;28534;48.100;11.584;2023-02-23T04:51:24;3.10;;;2.60;;
42884;SDS011;28534;48.100;11.584;2023-02-23T04:56:29;3.08;;;2.70;;
42884;SDS011;28534;48.100;11.584;2023-02-23T05:01:33;3.03;;;2.38;;
42884;SDS011;28534;48.100;11.584;2023-02-23T05:06:36;3.72;;;2.45;;
42884;SDS011;28534;48.100;11.584;2023-02-23T05:11:38;3.85;;;2.75;;
42884;SDS011;28534;48.100;11.584;2023-02-23T05:16:41;3.33;;;2.55;;
42884;SDS011;28534;48.100;11.584;2023-02-23T05:21:42;3.72;;;2.50;;
42884;SDS011;28534;48.100;11.584;2023-02-23T05:26:44;4.22;;;2.33;;
42884;SDS011;28534;48.100;11.584;2023-02-23T05:31:48;3.80;;;2.90;;
42884;SDS011;28534;48.100;11.584;2023-02-23T05:36:50;11.65;;;3.40;;
42884;SDS011;28534;48.100;11.584;2023-02-23T05:41:53;8.15;;;3.13;;
42884;SDS011;28534;48.100;11.584;2023-02-23T05:46:56;8.60;;;3.20;;
42884;SDS011;28534;48.100;11.584;2023-02-23T05:51:58;10.98;;;3.22;;
42884;SDS011;28534;48.100;11.584;2023-02-23T05:57:00;7.43;;;3.13;;
42884;SDS011;28534;48.100;11.584;2023-02-23T06:02:03;9.68;;;3.67;;
42884;SDS011;28534;48.100;11.584;2023-02-23T06:07:05;11.75;;;3.55;;
42884;SDS011;28534;48.100;11.584;2023-02-23T06:12:06;15.68;;;3.92;;
42884;SDS011;28534;48.100;11.584;2023-02-23T06:17:10;14.40;;;4.20;;
42884;SDS011;28534;48.100;11.584;2023-02-23T06:22:12;18.25;;;4.30;;
42884;SDS011;28534;48.100;11.584;2023-02-23T06:27:16;15.40;;;6.22;;
42884;SDS011;28534;48.100;11.584;2023-02-23T06:32:19;14.50;;;6.07;;
42884;SDS011;28534;48.100;11.584;2023-02-23T06:37:21;13.80;;;6.55;;
42884;SDS011;28534;48.100;11.584;2023-02-23T06:42:23;14.32;;;6.40;;
42884;SDS011;28534;48.100;11.584;2023-02-23T06:47:26;12.45;;;5.50;;
42884;SDS011;28534;48.100;11.584;2023-02-23T06:52:28;12.25;;;5.32;;
42884;SDS011;28534;48.100;11.584;2023-02-23T06:57:30;12.50;;;5.28;;
42884;SDS011;28534;48.100;11.584;2023-02-23T07:02:33;17.20;;;5.95;;
42884;SDS011;28534;48.100;11.584;2023-02-23T07:07:36;10.57;;;5.60;;
42884;SDS011;28534;48.100;11.584;2023-02-23T07:12:38;12.60;;;5.53;;
42884;SDS011;28534;48.100;11.584;2023-02-23T07:17:41;11.93;;;5.10;;
42884;SDS011;28534;48.100;11.584;2023-02-23T07:22:44;12.82;;;5.55;;
42884;SDS011;28534;48.100;11.584;2023-02-23T07:27:45;13.77;;;4.85;;
42884;SDS011;28534;48.100;11.584;2023-02-23T07:32:48;18.13;;;5.60;;
42884;SDS011;28534;48.100;11.584;2023-02-23T07:37:50;15.98;;;4.68;;
42884;SDS011;28534;48.100;11.584;2023-02-23T07:42:53;10.55;;;4.90;;
42884;SDS011;28534;48.100;11.584;2023-02-23T07:47:56;10.98;;;5.03;;
42884;SDS011;28534;48.100;11.584;2023-02-23T07:52:59;23.33;;;6.03;;
42884;SDS011;28534;48.100;11.584;2023-02-23T07:58:00;19.83;;;5.13;;
42884;SDS011;28534;48.100;11.584;2023-02-23T08:03:03;18.45;;;5.38;;
42884;SDS011;28534;48.100;11.584;2023-02-23T08:08:05;17.15;;;5.00;;
42884;SDS011;28534;48.100;11.584;2023-02-23T08:13:07;15.07;;;5.38;;
42884;SDS011;28534;48.100;11.584;2023-02-23T08:18:10;14.10;;;4.70;;
42884;SDS011;28534;48.100;11.584;2023-02-23T08:23:12;14.73;;;5.00;;
42884;SDS011;28534;48.100;11.584;2023-02-23T08:28:15;11.00;;;4.78;;
42884;SDS011;28534;48.100;11.584;2023-02-23T08:33:19;8.73;;;4.43;;
42884;SDS011;28534;48.100;11.584;2023-02-23T08:38:21;9.23;;;4.10;;
42884;SDS011;28534;48.100;11.584;2023-02-23T08:43:23;18.15;;;9.90;;
42884;SDS011;28534;48.100;11.584;2023-02-23T08:48:26;14.32;;;11.00;;
42884;SDS011;28534;48.100;11.584;2023-02-23T08:53:27;16.50;;;11.45;;
42884;SDS011;28534;48.100;11.584;2023-02-23T08:58:29;14.45;;;11.35;;
42884;SDS011;28534;48.100;11.584;2023-02-23T09:03:33;15.32;;;11.70;;
42884;SDS011;28534;48.100;11.584;2023-02-23T09:08:35;14.85;;;10.98;;
42884;SDS011;28534;48.100;11.584;2023-02-23T09:13:38;16.60;;;11.57;;
42884;SDS011;28534;48.100;11.584;2023-02-23T09:18:41;14.90;;;9.27;;
42884;SDS011;28534;48.100;11.584;2023-02-23T09:23:43;10.65;;;7.30;;
42884;SDS011;28534;48.100;11.584;2023-02-23T09:28:47;12.38;;;6.28;;
42884;SDS011;28534;48.100;11.584;2023-02-23T09:33:50;10.98;;;6.00;;
42884;SDS011;28534;48.100;11.584;2023-02-23T09:38:53;12.05;;;6.20;;
42884;SDS011;28534;48.100;11.584;2023-02-23T09:43:57;9.90;;;5.32;;
42884;SDS011;28534;48.100;11.584;2023-02-23T09:49:04;8.43;;;4.82;;
42884;SDS011;28534;48.100;11.584;2023-02-23T09:54:11;9.13;;;5.00;;
42884;SDS011;28534;48.100;11.584;2023-02-23T09:59:17;10.07;;;5.03;;
42884;SDS011;28534;48.100;11.584;2023-02-23T10:04:22;11.60;;;5.65;;
42884;SDS011;28534;48.100;11.584;2023-02-23T10:09:33;8.32;;;4.95;;
42884;SDS011;28534;48.100;11.584;2023-02-23T10:14:52;7.95;;;5.00;;
42884;SDS011;28534;48.100;11.584;2023-02-23T10:20:12;12.23;;;5.10;;
42884;SDS011;28534;48.100;11.584;2023-02-23T10:25:20;12.60;;;4.60;;
42884;SDS011;28534;48.100;11.584;2023-02-23T10:30:25;12.70;;;5.55;;
42884;SDS011;28534;48.100;11.584;2023-02-23T10:35:30;9.63;;;4.20;;
42884;SDS011;28534;48.100;11.584;2023-02-23T10:40:32;9.88;;;4.68;;
42884;SDS011;28534;48.100;11.584;2023-02-23T10:45:37;9.95;;;4.80;;
42884;SDS011;28534;48.100;11.584;2023-02-23T10:50:45;15.45;;;4.93;;
42884;SDS011;28534;48.100;11.584;2023-02-23T10:55:58;10.77;;;4.63;;
42884;SDS011;28534;48.100;11.584;2023-02-23T11:01:03;9.70;;;4.38;;
42884;SDS011;28534;48.100;11.584;2023-02-23T11:06:09;10.82;;;4.65;;
42884;SDS011;28534;48.100;11.584;2023-02-23T11:11:28;11.93;;;4.50;;
42884;SDS011;28534;48.100;11.584;2023-02-23T11:16:30;8.40;;;4.13;;
42884;SDS011;28534;48.100;11.584;2023-02-23T11:21:40;8.55;;;4.25;;
42884;SDS011;28534;48.100;11.584;2023-02-23T11:26:50;9.85;;;4.40;;
42884;SDS011;28534;48.100;11.584;2023-02-23T11:31:53;9.43;;;4.53;;
42884;SDS011;28534;48.100;11.584;2023-02-23T11:36:59;16.65;;;6.40;;
42884;SDS011;28534;48.100;11.584;2023-02-23T11:42:09;11.38;;;6.78;;
42884;SDS011;28534;48.100;11.584;2023-02-23T11:47:15;8.15;;;5.30;;
42884;SDS011;28534;48.100;11.584;2023-02-23T11:52:21;7.72;;;4.50;;
42884;SDS011;28534;48.100;11.584;2023-02-23T11:57:25;5.20;;;4.00;;
42884;SDS011;28534;48.100;11.584;2023-02-23T12:02:29;5.90;;;3.60;;
42884;SDS011;28534;48.100;11.584;2023-02-23T12:07:37;5.88;;;3.45;;
42884;SDS011;28534;48.100;11.584;2023-02-23T12:12:46;4.97;;;3.75;;
42884;SDS011;28534;48.100;11.584;2023-02-23T12:17:56;6.60;;;3.17;;
42884;SDS011;28534;48.100;11.584;2023-02-23T12:23:05;4.43;;;3.35;;
42884;SDS011;28534;48.100;11.584;2023-02-23T12:28:11;3.75;;;2.95;;
42884;SDS011;28534;48.100;11.584;2023-02-23T12:33:20;3.67;;;2.83;;
42884;SDS011;28534;48.100;11.584;2023-02-23T12:38:32;6.20;;;2.97;;
42884;SDS011;28534;48.100;11.584;2023-02-23T12:43:45;5.53;;;3.60;;
42884;SDS011;28534;48.100;11.584;2023-02-23T12:48:52;6.22;;;3.83;;
42884;SDS011;28534;48.100;11.584;2023-02-23T12:54:02;6.60;;;3.70;;
42884;SDS011;28534;48.100;11.584;2023-02-23T12:59:17;7.50;;;3.72;;
42884;SDS011;28534;48.100;11.584;2023-02-23T13:04:40;9.90;;;3.60;;
42884;SDS011;28534;48.100;11.584;2023-02-23T13:09:58;9.73;;;3.80;;
42884;SDS011;28534;48.100;11.584;2023-02-23T13:15:11;8.25;;;4.75;;
42884;SDS011;28534;48.100;11.584;2023-02-23T13:20:21;7.40;;;4.32;;
42884;SDS011;28534;48.100;11.584;2023-02-23T13:25:31;8.75;;;4.32;;
42884;SDS011;28534;48.100;11.584;2023-02-23T13:30:41;6.90;;;4.10;;
42884;SDS011;28534;48.100;11.584;2023-02-23T13:35:46;8.70;;;4.30;;
42884;SDS011;28534;48.100;11.584;2023-02-23T13:40:50;6.03;;;4.20;;
42884;SDS011;28534;48.100;11.584;2023-02-23T13:46:01;5.90;;;4.30;;
42884;SDS011;28534;48.100;11.584;2023-02-23T13:51:16;6.78;;;4.93;;
42884;SDS011;28534;48.100;11.584;2023-02-23T13:56:27;6.10;;;3.50;;
42884;SDS011;28534;48.100;11.584;2023-02-23T14:01:31;4.50;;;3.30;;
42884;SDS011;28534;48.100;11.584;2023-02-23T14:06:36;5.65;;;3.08;;
42884;SDS011;28534;48.100;11.584;2023-02-23T14:11:44;4.60;;;3.08;;
42884;SDS011;28534;48.100;11.584;2023-02-23T14:22:32;6.47;;;3.05;;
42884;SDS011;28534;48.100;11.584;2023-02-23T14:27:40;4.25;;;2.70;;
42884;SDS011;28534;48.100;11.584;2023-02-23T14:32:44;10.00;;;2.70;;
42884;SDS011;28534;48.100;11.584;2023-02-23T14:37:53;6.10;;;2.88;;
42884;SDS011;28534;48.100;11.584;2023-02-23T14:43:00;6.22;;;2.88;;
42884;SDS011;28534;48.100;11.584;2023-02-23T14:48:04;8.43;;;4.32;;
42884;SDS011;28534;48.100;11.584;2023-02-23T14:53:12;7.35;;;4.22;;
42884;SDS011;28534;48.100;11.584;2023-02-23T14:58:21;12.52;;;4.63;;
42884;SDS011;28534;48.100;11.584;2023-02-23T15:03:24;11.43;;;3.92;;
42884;SDS011;28534;48.100;11.584;2023-02-23T15:08:26;6.43;;;3.28;;
42884;SDS011;28534;48.100;11.584;2023-02-23T15:13:31;5.65;;;3.03;;
42884;SDS011;28534;48.100;11.584;2023-02-23T15:18:36;6.32;;;2.83;;
42884;SDS011;28534;48.100;11.584;2023-02-23T15:23:42;9.10;;;2.97;;
42884;SDS011;28534;48.100;11.584;2023-02-23T15:28:47;11.40;;;3.55;;
42884;SDS011;28534;48.100;11.584;2023-02-23T15:33:49;14.15;;;3.58;;
42884;SDS011;28534;48.100;11.584;2023-02-23T15:38:51;7.55;;;2.92;;
42884;SDS011;28534;48.100;11.584;2023-02-23T15:44:00;11.43;;;3.67;;
42884;SDS011;28534;48.100;11.584;2023-02-23T15:49:07;10.73;;;3.17;;
42884;SDS011;28534;48.100;11.584;2023-02-23T15:54:15;11.50;;;3.08;;
42884;SDS011;28534;48.100;11.584;2023-02-23T15:59:25;14.63;;;3.35;;
42884;SDS011;28534;48.100;11.584;2023-02-23T16:04:29;12.52;;;3.50;;
42884;SDS011;28534;48.100;11.584;2023-02-23T16:09:36;9.18;;;3.25;;
42884;SDS011;28534;48.100;11.584;2023-02-23T16:14:43;10.60;;;3.38;;
42884;SDS011;28534;48.100;11.584;2023-02-23T16:19:46;15.90;;;5.50;;
42884;SDS011;28534;48.100;11.584;2023-02-23T16:24:51;13.23;;;4.47;;
42884;SDS011;28534;48.100;11.584;2023-02-23T16:30:14;19.73;;;4.85;;
42884;SDS011;28534;48.100;11.584;2023-02-23T16:35:19;15.38;;;4.70;;
42884;SDS011;28534;48.100;11.584;2023-02-23T16:40:20;16.13;;;4.80;;
42884;SDS011;28534;48.100;11.584;2023-02-23T16:45:24;17.98;;;4.47;;
42884;SDS011;28534;48.100;11.584;2023-02-23T16:50:28;14.77;;;4.30;;
42884;SDS011;28534;48.100;11.584;2023-02-23T16:55:32;14.52;;;4.18;;
42884;SDS011;28534;48.100;11.584;2023-02-23T17:00:39;19.60;;;4.80;;
42884;SDS011;28534;48.100;11.584;2023-02-23T17:05:41;16.65;;;4.15;;
42884;SDS011;28534;48.100;11.584;2023-02-23T17:10:45;19.67;;;4.75;;
42884;SDS011;28534;48.100;11.584;2023-02-23T17:15:50;24.08;;;5.18;;
42884;SDS011;28534;48.100;11.584;2023-02-23T17:20:56;23.65;;;4.80;;
42884;SDS011;28534;48.100;11.584;2023-02-23T17:25:59;17.65;;;5.00;;
42884;SDS011;28534;48.100;11.584;2023-02-23T17:31:04;17.77;;;4.65;;
42884;SDS011;28534;48.100;11.584;2023-02-23T17:36:07;14.90;;;4.15;;
42884;SDS011;28534;48.100;11.584;2023-02-23T17:41:12;19.77;;;4.45;;
42884;SDS011;28534;48.100;11.584;2023-02-23T17:46:17;15.88;;;4.43;;
42884;SDS011;28534;48.100;11.584;2023-02-23T17:51:19;14.00;;;4.15;;
42884;SDS011;28534;48.100;11.584;2023-02-23T17:56:21;16.23;;;4.18;;
42884;SDS011;28534;48.100;11.584;2023-02-23T18:01:24;19.85;;;4.22;;
42884;SDS011;28534;48.100;11.584;2023-02-23T18:06:26;12.70;;;4.20;;
42884;SDS011;28534;48.100;11.584;2023-02-23T18:11:29;15.63;;;4.38;;
42884;SDS011;28534;48.100;11.584;2023-02-23T18:16:34;16.30;;;4.82;;
42884;SDS011;28534;48.100;11.584;2023-02-23T18:21:36;13.75;;;3.63;;
42884;SDS011;28534;48.100;11.584;2023-02-23T18:26:40;14.15;;;4.35;;
42884;SDS011;28534;48.100;11.584;2023-02-23T18:31:43;18.58;;;4.30;;
42884;SDS011;28534;48.100;11.584;2023-02-23T18:36:46;13.70;;;3.90;;
42884;SDS011;28534;48.100;11.584;2023-02-23T18:41:48;13.90;;;4.25;;
42884;SDS011;28534;48.100;11.584;2023-02-23T18:46:51;13.75;;;4.00;;
42884;SDS011;28534;48.100;11.584;2023-02-23T18:51:54;12.18;;;3.70;;
42884;SDS011;28534;48.100;11.584;2023-02-23T18:56:55;8.38;;;5.03;;
42884;SDS011;28534;48.100;11.584;2023-02-23T19:01:58;6.88;;;5.35;;
42884;SDS011;28534;48.100;11.584;2023-02-23T19:07:00;7.20;;;4.90;;
42884;SDS011;28534;48.100;11.584;2023-02-23T19:12:02;7.43;;;5.10;;
42884;SDS011;28534;48.100;11.584;2023-02-23T19:17:06;7.30;;;5.03;;
42884;SDS011;28534;48.100;11.584;2023-02-23T19:22:07;6.20;;;4.35;;
42884;SDS011;28534;48.100;11.584;2023-02-23T19:27:09;4.90;;;4.38;;
42884;SDS011;28534;48.100;11.584;2023-02-23T19:32:13;6.43;;;4.40;;
42884;SDS011;28534;48.100;11.584;2023-02-23T19:37:16;5.30;;;4.28;;
42884;SDS011;28534;48.100;11.584;2023-02-23T19:42:18;5.78;;;4.15;;
42884;SDS011;28534;48.100;11.584;2023-02-23T19:47:22;5.35;;;3.85;;
42884;SDS011;28534;48.100;11.584;2023-02-23T19:52:23;4.43;;;3.97;;
42884;SDS011;28534;48.100;11.584;2023-02-23T19:57:27;4.60;;;3.75;;
42884;SDS011;28534;48.100;11.584;2023-02-23T20:02:30;5.28;;;3.97;;
42884;SDS011;28534;48.100;11.584;2023-02-23T20:07:32;6.53;;;3.70;;
42884;SDS011;28534;48.100;11.584;2023-02-23T20:12:34;4.07;;;3.58;;
42884;SDS011;28534;48.100;11.584;2023-02-23T20:17:37;4.32;;;3.40;;
42884;SDS011;28534;48.100;11.584;2023-02-23T20:22:39;6.18;;;3.70;;
42884;SDS011;28534;48.100;11.584;2023-02-23T20:27:42;6.35;;;3.75;;
42884;SDS011;28534;48.100;11.584;2023-02-23T20:32:45;4.35;;;3.80;;
42884;SDS011;28534;48.100;11.584;2023-02-23T20:37:47;5.68;;;3.40;;
42884;SDS011;28534;48.100;11.584;2023-02-23T20:42:49;5.13;;;4.00;;
42884;SDS011;28534;48.100;11.584;2023-02-23T20:47:52;3.90;;;3.50;;
42884;SDS011;28534;48.100;11.584;2023-02-23T20:52:55;4.40;;;3.40;;
42884;SDS011;28534;48.100;11.584;2023-02-23T20:57:56;4.32;;;3.40;;
42884;SDS011;28534;48.100;11.584;2023-02-23T21:03:00;3.70;;;3.17;;
42884;SDS011;28534;48.100;11.584;2023-02-23T21:08:03;4.03;;;3.40;;
42884;SDS011;28534;48.100;11.584;2023-02-23T21:13:06;5.38;;;3.33;;
42884;SDS011;28534;48.100;11.584;2023-02-23T21:18:11;4.43;;;3.30;;
42884;SDS011;28534;48.100;11.584;2023-02-23T21:23:12;3.90;;;3.22;;
42884;SDS011;28534;48.100;11.584;2023-02-23T21:28:16;3.58;;;3.15;;
42884;SDS011;28534;48.100;11.584;2023-02-23T21:33:21;4.55;;;3.38;;
42884;SDS011;28534;48.100;11.584;2023-02-23T21:38:23;5.00;;;3.60;;
42884;SDS011;28534;48.100;11.584;2023-02-23T21:43:25;5.30;;;3.10;;
42884;SDS011;28534;48.100;11.584;2023-02-23T21:48:29;3.50;;;3.20;;
42884;SDS011;28534;48.100;11.584;2023-02-23T21:53:31;3.33;;;2.97;;
42884;SDS011;28534;48.100;11.584;2023-02-23T21:58:33;5.22;;;3.20;;
42884;SDS011;28534;48.100;11.584;2023-02-23T22:03:37;4.05;;;3.20;;
42884;SDS011;28534;48.100;11.584;2023-02-23T22:08:39;3.45;;;3.10;;
42884;SDS011;28534;48.100;11.584;2023-02-23T22:13:43;3.20;;;2.88;;
42884;SDS011;28534;48.100;11.584;2023-02-23T22:18:47;3.90;;;2.75;;
42884;SDS011;28534;48.100;11.584;2023-02-23T22:23:49;4.97;;;2.95;;
42884;SDS011;28534;48.100;11.584;2023-02-23T22:28:52;3.60;;;3.10;;
42884;SDS011;28534;48.100;11.584;2023-02-23T22:33:55;3.10;;;2.70;;
42884;SDS011;28534;48.100;11.584;2023-02-23T22:38:57;3.80;;;3.00;;
42884;SDS011;28534;48.100;11.584;2023-02-23T22:43:59;3.78;;;3.10;;
42884;SDS011;28534;48.100;11.584;2023-02-23T22:49:02;2.75;;;2.53;;
42884;SDS011;28534;48.100;11.584;2023-02-23T22:54:04;3.08;;;2.60;;
42884;SDS011;28534;48.100;11.584;2023-02-23T22:59:06;3.22;;;2.92;;
42884;SDS011;28534;48.100;11.584;2023-02-23T23:04:11;3.22;;;2.70;;
42884;SDS011;28534;48.100;11.584;2023-02-23T23:09:13;2.78;;;2.55;;
42884;SDS011;28534;48.100;11.584;2023-02-23T23:14:17;3.20;;;2.90;;
42884;SDS011;28534;48.100;11.584;2023-02-23T23:19:21;3.13;;;2.83;;
42884;SDS011;28534;48.100;11.584;2023-02-23T23:24:23;3.05;;;2.70;;
42884;SDS011;28534;48.100;11.584;2023-02-23T23:29:25;4.13;;;2.60;;
42884;SDS011;28534;48.100;11.584;2023-02-23T23:34:30;2.85;;;2.55;;
42884;SDS011;28534;48.100;11.584;2023-02-23T23:39:32;3.40;;;2.72;;
42884;SDS011;28534;48.100;11.584;2023-02-23T23:44:34;2.78;;;2.58;;
42884;SDS011;28534;48.100;11.584;2023-02-23T23:49:37;3.05;;;2.75;;
42884;SDS011;28534;48.100;11.584;2023-02-23T23:54:39;3.25;;;2.70;;
42884;SDS011;28534;48.100;11.584;2023-02-23T23:59:41;2.90;;;2.60;;
